Weather at Stare Juchy Landing Site

Public forecast

Using degrees Celsius for public forecast. Weather courtesy of forecast.io.

Closest aviation weather report (METAR) to Stare Juchy Landing Site

Closest report is Olsztyn-Mazury Airport, 52.7 nm (97.5 km) WSW.

2024/07/24 14:00 (retrieved 37 minutes ago)

EPSY 241400Z 35005KT 320V030 CAVOK 22/15 Q1012

Closest aviation forecast (TAF) to Stare Juchy Landing Site

Closest forecast is Khrabrovo Airport, 82.3 nm (152.4 km) NW.

2024/07/24 15:24 (retrieved 0 seconds ago)

TAF UMKK 241356Z 2415/2515 36003G10MPS 6000 SCT020CB TEMPO 2415/2421 2000 TSRA BKN016CB BECMG 2418/2421 28003G08MPS TEMPO 2421/2504 0300 PRFG FEW002 SCT020CB TEMPO 2504/2515 -TSRA BKN010 BKN020CB BECMG 2506/2509 31005G10MPS